Time;durP1;ratioP1;P1;durP2;ratioP2;P2;SDS_P1;SDS_P2;PMS_P1;PMS_P2;Temp;Humidity;BMP_temperature;BMP_pressure;BME280_temperature;BME280_humidity;BME280_pressure;Samples;Min_cycle;Max_cycle;Signal;HPM_P1;HPM_P2
2022/06/01 00:01:50;;;;;;;1.30;1.20;;;11.70;99.90;;;;;;5058336;28;20191;-50
2022/06/01 00:04:17;;;;;;;1.50;1.40;;;11.70;99.90;;;;;;5045756;28;20203;-52
2022/06/01 00:06:44;;;;;;;1.73;1.57;;;11.70;99.90;;;;;;5042479;28;20194;-48
2022/06/01 00:09:12;;;;;;;1.77;1.60;;;11.70;99.90;;;;;;5056375;28;20221;-51
2022/06/01 00:11:39;;;;;;;1.83;1.37;;;11.70;99.90;;;;;;5040478;28;20269;-51
2022/06/01 00:14:07;;;;;;;1.47;1.37;;;11.60;99.90;;;;;;5060033;28;20218;-47
2022/06/01 00:16:35;;;;;;;2.13;1.20;;;11.60;99.90;;;;;;5047629;28;20210;-46
2022/06/01 00:19:03;;;;;;;2.60;1.50;;;11.60;99.90;;;;;;5047961;28;20211;-53
2022/06/01 00:21:30;;;;;;;3.30;1.50;;;11.60;99.90;;;;;;5044846;28;20215;-50
2022/06/01 00:23:57;;;;;;;1.77;1.13;;;11.60;99.90;;;;;;5052776;28;20193;-53
2022/06/01 00:26:24;;;;;;;1.50;1.40;;;11.60;99.90;;;;;;5055785;28;20249;-51
2022/06/01 00:28:50;;;;;;;1.60;1.50;;;11.50;99.90;;;;;;5038109;28;20211;-53
2022/06/01 00:31:17;;;;;;;1.40;1.30;;;11.50;99.90;;;;;;5057701;28;20257;-52
2022/06/01 00:33:44;;;;;;;0.93;0.93;;;11.40;99.90;;;;;;5047511;28;20195;-50
2022/06/01 00:36:13;;;;;;;1.40;1.30;;;11.40;99.90;;;;;;5051041;28;20215;-53
2022/06/01 00:38:39;;;;;;;2.03;1.40;;;11.30;99.90;;;;;;5043904;28;20256;-53
2022/06/01 00:41:06;;;;;;;2.30;1.07;;;11.30;99.90;;;;;;5058259;28;20203;-46
2022/06/01 00:43:42;;;;;;;4.13;1.20;;;11.30;99.90;;;;;;5038103;28;20209;-53
2022/06/01 00:46:10;;;;;;;1.20;1.20;;;11.30;99.90;;;;;;5053759;28;20272;-47
2022/06/01 00:48:39;;;;;;;1.17;1.17;;;11.20;99.90;;;;;;5042490;28;20225;-49
2022/06/01 00:51:07;;;;;;;1.50;1.40;;;11.20;99.90;;;;;;5043344;28;20194;-48
2022/06/01 00:53:38;;;;;;;1.30;1.20;;;11.10;99.90;;;;;;5054327;28;20199;-54
2022/06/01 00:56:07;;;;;;;1.47;1.27;;;11.10;99.90;;;;;;5061221;28;20301;-51
2022/06/01 00:58:38;;;;;;;1.53;1.23;;;11.10;99.90;;;;;;5047496;28;20225;-53
2022/06/01 01:01:08;;;;;;;1.30;1.30;;;11.10;99.90;;;;;;5039252;28;20211;-51
2022/06/01 01:03:39;;;;;;;1.10;1.10;;;11.20;99.90;;;;;;5052757;28;20229;-52
2022/06/01 01:06:12;;;;;;;3.63;1.30;;;11.10;99.90;;;;;;5054964;28;20215;-53
2022/06/01 01:08:42;;;;;;;1.60;1.50;;;11.00;99.90;;;;;;5044550;28;20427;-51
2022/06/01 01:11:09;;;;;;;2.50;1.40;;;10.90;99.90;;;;;;5055487;28;20191;-47
2022/06/01 01:13:38;;;;;;;1.93;1.33;;;10.90;99.90;;;;;;5052615;28;20553;-53
2022/06/01 01:16:05;;;;;;;1.83;1.10;;;10.90;99.90;;;;;;5047624;28;20214;-49
2022/06/01 01:18:36;;;;;;;1.60;1.50;;;10.70;99.90;;;;;;5060210;28;20218;-49
2022/06/01 01:21:13;;;;;;;2.83;1.40;;;10.70;99.90;;;;;;5055259;28;20191;-54
2022/06/01 01:23:48;;;;;;;1.50;1.40;;;10.60;99.90;;;;;;5042905;28;20214;-53
2022/06/01 01:26:16;;;;;;;3.90;1.50;;;10.60;99.90;;;;;;5047047;28;20195;-54
2022/06/01 01:28:43;;;;;;;0.90;0.90;;;10.60;99.90;;;;;;5055569;28;20911;-51
2022/06/01 01:31:16;;;;;;;1.17;1.17;;;10.60;99.90;;;;;;5049699;28;20714;-50
2022/06/01 01:33:45;;;;;;;1.23;1.13;;;10.60;99.90;;;;;;5040940;28;20778;-49
2022/06/01 01:36:14;;;;;;;2.33;1.60;;;10.60;99.90;;;;;;5056042;28;20265;-51
2022/06/01 01:38:44;;;;;;;3.30;1.60;;;10.50;99.90;;;;;;5043007;28;20226;-49
2022/06/01 01:41:16;;;;;;;1.60;1.30;;;10.40;99.90;;;;;;5061682;28;20551;-51
2022/06/01 01:43:55;;;;;;;2.63;1.80;;;10.30;99.90;;;;;;5042847;28;20203;-50
2022/06/01 01:46:22;;;;;;;1.87;1.43;;;10.30;99.90;;;;;;5050021;28;20195;-50
2022/06/01 01:48:49;;;;;;;3.37;1.30;;;10.20;99.90;;;;;;5046673;28;20949;-52
2022/06/01 01:51:20;;;;;;;2.90;1.60;;;10.20;99.90;;;;;;5053908;28;20656;-47
2022/06/01 01:53:48;;;;;;;2.70;1.40;;;10.20;99.90;;;;;;5043096;28;20195;-50
2022/06/01 01:56:30;;;;;;;1.50;1.40;;;10.10;99.90;;;;;;5053933;28;20276;-47
2022/06/01 01:59:11;;;;;;;1.87;1.60;;;10.10;99.90;;;;;;5054147;28;20948;-47
2022/06/01 02:01:45;;;;;;;1.53;1.43;;;10.10;99.90;;;;;;5045469;28;20210;-49
2022/06/01 02:07:12;;;;;;;1.73;1.63;;;10.10;99.90;;;;;;5056597;28;20199;-50
2022/06/01 02:12:43;;;;;;;1.93;1.83;;;10.10;99.90;;;;;;5056687;28;20710;-48
2022/06/01 02:15:16;;;;;;;2.27;2.17;;;10.00;99.90;;;;;;5055470;28;20257;-48
2022/06/01 02:17:49;;;;;;;3.07;2.10;;;9.90;99.90;;;;;;5039932;28;20293;-53
2022/06/01 02:20:24;;;;;;;2.10;2.00;;;9.90;99.90;;;;;;5056610;28;20202;-48
2022/06/01 02:22:51;;;;;;;1.70;1.60;;;9.90;99.90;;;;;;5046964;28;20221;-52
2022/06/01 02:25:19;;;;;;;2.63;2.10;;;9.90;99.90;;;;;;5044010;28;20257;-54
2022/06/01 02:27:50;;;;;;;3.30;2.07;;;9.90;99.90;;;;;;5052087;28;20195;-50
2022/06/01 02:30:20;;;;;;;2.23;2.03;;;9.90;99.90;;;;;;5051745;28;20198;-47
2022/06/01 02:32:47;;;;;;;1.80;1.70;;;9.90;99.90;;;;;;5036263;28;20213;-48
2022/06/01 02:35:17;;;;;;;2.00;1.90;;;9.90;99.90;;;;;;5057577;28;20205;-50
2022/06/01 02:37:49;;;;;;;2.33;2.23;;;9.90;99.90;;;;;;5047239;28;20211;-51
2022/06/01 02:40:19;;;;;;;2.80;2.60;;;9.90;99.90;;;;;;5051243;28;20207;-53
2022/06/01 02:42:50;;;;;;;2.40;2.13;;;9.80;99.90;;;;;;5060269;28;20187;-50
2022/06/01 02:45:20;;;;;;;2.90;2.63;;;9.80;99.90;;;;;;5046021;28;20205;-51
2022/06/01 02:47:48;;;;;;;2.03;1.93;;;9.80;99.90;;;;;;5035078;28;20205;-47
2022/06/01 02:50:18;;;;;;;2.30;2.17;;;9.80;99.90;;;;;;5052441;28;20198;-49
2022/06/01 02:52:45;;;;;;;3.30;2.30;;;9.70;99.90;;;;;;5040606;28;20195;-52
2022/06/01 02:55:13;;;;;;;2.40;1.83;;;9.70;99.90;;;;;;5046291;28;20730;-50
2022/06/01 02:57:42;;;;;;;2.30;2.20;;;9.80;99.90;;;;;;5051593;28;20288;-52
2022/06/01 03:00:17;;;;;;;2.30;2.10;;;9.80;99.90;;;;;;5056632;28;20190;-51
2022/06/01 03:02:45;;;;;;;3.47;2.17;;;9.80;99.90;;;;;;5043782;28;20183;-49
2022/06/01 03:05:11;;;;;;;2.30;2.13;;;9.80;99.90;;;;;;5044889;28;20215;-49
2022/06/01 03:07:38;;;;;;;3.40;2.10;;;9.80;99.90;;;;;;5051822;28;20199;-53
2022/06/01 03:10:06;;;;;;;2.87;2.67;;;9.70;99.90;;;;;;5051027;28;20582;-51
2022/06/01 03:12:34;;;;;;;3.03;1.93;;;9.70;99.90;;;;;;5047486;28;20303;-52
2022/06/01 03:15:01;;;;;;;2.60;2.20;;;9.70;99.90;;;;;;5050433;28;20199;-53
2022/06/01 03:17:30;;;;;;;2.40;2.10;;;9.60;99.90;;;;;;5047152;28;20215;-52
2022/06/01 03:19:56;;;;;;;2.47;2.27;;;9.70;99.90;;;;;;5039972;28;20218;-52
2022/06/01 03:22:23;;;;;;;2.30;2.10;;;9.70;99.90;;;;;;5053723;28;20556;-52
2022/06/01 03:24:51;;;;;;;2.37;2.27;;;9.70;99.90;;;;;;5052845;28;20191;-50
2022/06/01 03:27:18;;;;;;;6.13;2.50;;;9.70;99.90;;;;;;5052581;28;20241;-52
2022/06/01 03:29:44;;;;;;;2.20;2.03;;;9.70;99.90;;;;;;5051983;28;20904;-51
2022/06/01 03:32:11;;;;;;;2.63;2.43;;;9.70;99.90;;;;;;5043930;28;20211;-52
2022/06/01 03:34:40;;;;;;;2.63;1.90;;;9.60;99.90;;;;;;5057987;28;20898;-53
2022/06/01 03:37:07;;;;;;;2.23;1.97;;;9.60;99.90;;;;;;5047290;28;20211;-52
2022/06/01 03:39:33;;;;;;;2.30;2.20;;;9.60;99.90;;;;;;5048931;28;20992;-50
2022/06/01 03:42:00;;;;;;;3.00;2.30;;;9.50;99.90;;;;;;5044676;28;20214;-47
2022/06/01 03:47:12;;;;;;;2.70;2.50;;;9.60;99.90;;;;;;5051847;28;20672;-52
2022/06/01 03:49:43;;;;;;;3.00;2.33;;;9.60;99.90;;;;;;5055523;28;20215;-52
2022/06/01 03:52:11;;;;;;;3.40;2.50;;;9.60;99.90;;;;;;5044427;28;20861;-51
2022/06/01 03:54:39;;;;;;;5.10;2.50;;;9.60;99.90;;;;;;5040177;28;20205;-53
2022/06/01 03:57:07;;;;;;;4.23;2.50;;;9.60;99.90;;;;;;5048801;28;20215;-50
2022/06/01 03:59:35;;;;;;;2.87;2.67;;;9.60;99.90;;;;;;5056391;28;20220;-53
2022/06/01 04:02:02;;;;;;;4.33;3.30;;;9.70;99.90;;;;;;5048825;28;20209;-49
2022/06/01 04:04:29;;;;;;;4.10;3.30;;;9.80;99.90;;;;;;5047561;28;20953;-51
2022/06/01 04:06:57;;;;;;;3.40;3.10;;;9.80;99.90;;;;;;5043906;28;20539;-53
2022/06/01 04:09:24;;;;;;;3.47;3.17;;;9.90;99.90;;;;;;5045173;28;20233;-52
2022/06/01 04:11:52;;;;;;;3.07;2.87;;;9.90;99.90;;;;;;5050590;28;20205;-53
2022/06/01 04:14:19;;;;;;;3.10;2.90;;;9.90;99.90;;;;;;5050899;28;20289;-51
2022/06/01 04:16:47;;;;;;;3.53;3.33;;;10.00;99.90;;;;;;5046526;28;20232;-52
2022/06/01 04:19:15;;;;;;;4.07;3.67;;;10.10;99.90;;;;;;5051540;28;20211;-48
2022/06/01 04:21:44;;;;;;;4.53;3.87;;;10.20;99.90;;;;;;5048137;28;20202;-50
2022/06/01 04:24:16;;;;;;;4.40;3.40;;;10.20;99.90;;;;;;5045376;28;20285;-51
2022/06/01 04:26:43;;;;;;;3.73;3.43;;;10.30;99.90;;;;;;5057815;28;20209;-51
2022/06/01 04:29:10;;;;;;;3.20;3.00;;;10.40;99.90;;;;;;5047675;28;20234;-54
2022/06/01 04:31:38;;;;;;;3.77;3.00;;;10.50;99.90;;;;;;5043418;28;20702;-48
2022/06/01 04:34:05;;;;;;;3.50;3.20;;;10.50;99.90;;;;;;5045341;28;21199;-53
2022/06/01 04:36:32;;;;;;;4.77;3.43;;;10.60;99.90;;;;;;5059650;28;20230;-52
2022/06/01 04:38:59;;;;;;;4.27;2.87;;;10.70;99.90;;;;;;5037519;28;20860;-50
2022/06/01 04:41:27;;;;;;;3.07;2.87;;;10.80;99.90;;;;;;5053330;28;20559;-48
2022/06/01 04:43:54;;;;;;;3.47;3.20;;;10.80;99.90;;;;;;5042195;28;20199;-53
2022/06/01 04:46:21;;;;;;;2.83;2.63;;;10.90;99.90;;;;;;5051579;28;20213;-53
2022/06/01 04:48:48;;;;;;;2.90;2.70;;;10.90;99.90;;;;;;5051850;28;20221;-51
2022/06/01 04:51:16;;;;;;;3.43;2.60;;;11.00;99.90;;;;;;5056562;28;20209;-52
2022/06/01 04:53:44;;;;;;;2.73;2.53;;;11.00;99.90;;;;;;5052021;28;20211;-50
2022/06/01 04:56:11;;;;;;;3.17;2.87;;;11.10;99.90;;;;;;5054929;28;20192;-51
2022/06/01 04:58:40;;;;;;;2.80;2.60;;;11.10;99.90;;;;;;5052724;28;21895;-50
2022/06/01 05:01:07;;;;;;;2.87;2.60;;;11.20;99.90;;;;;;5052399;28;20195;-53
2022/06/01 05:03:35;;;;;;;3.00;2.60;;;11.20;99.90;;;;;;5052204;28;20191;-49
2022/06/01 05:06:02;;;;;;;4.10;2.40;;;11.20;99.90;;;;;;5058373;28;20269;-50
2022/06/01 05:08:28;;;;;;;3.07;2.77;;;11.30;99.90;;;;;;5040602;28;20218;-48
2022/06/01 05:10:55;;;;;;;3.17;2.87;;;11.40;99.90;;;;;;5054663;28;20199;-49
2022/06/01 05:13:22;;;;;;;3.47;2.90;;;11.40;99.90;;;;;;5046571;28;20195;-50
2022/06/01 05:15:53;;;;;;;3.00;2.60;;;11.50;99.90;;;;;;5056791;28;20545;-52
2022/06/01 05:18:20;;;;;;;2.87;2.67;;;11.60;99.90;;;;;;5054241;28;20223;-52
2022/06/01 05:20:47;;;;;;;2.73;2.53;;;11.60;99.90;;;;;;5053437;28;20203;-48
2022/06/01 05:23:13;;;;;;;2.60;2.40;;;11.70;99.90;;;;;;5059739;28;20565;-51
2022/06/01 05:25:40;;;;;;;3.67;3.00;;;11.70;99.90;;;;;;5043959;28;20203;-49
2022/06/01 05:28:07;;;;;;;2.77;2.57;;;11.70;99.90;;;;;;5052762;28;20665;-53
2022/06/01 05:30:34;;;;;;;2.43;2.23;;;11.70;99.90;;;;;;5047528;28;20196;-52
2022/06/01 05:33:03;;;;;;;2.97;2.77;;;11.80;99.90;;;;;;5046510;28;20191;-54
2022/06/01 05:35:30;;;;;;;2.63;2.30;;;11.80;99.90;;;;;;5053873;28;20888;-52
2022/06/01 05:37:57;;;;;;;2.53;2.30;;;11.70;99.90;;;;;;5044765;28;20215;-51
2022/06/01 05:40:25;;;;;;;3.27;2.53;;;11.70;99.90;;;;;;5037465;28;20286;-52
2022/06/01 05:42:52;;;;;;;3.20;2.53;;;11.70;99.90;;;;;;5057175;28;20217;-51
2022/06/01 05:45:19;;;;;;;2.90;2.70;;;11.70;99.90;;;;;;5049357;28;20264;-51
2022/06/01 05:47:46;;;;;;;4.10;2.90;;;11.70;99.90;;;;;;5046124;28;20214;-52
2022/06/01 05:50:14;;;;;;;3.13;2.83;;;11.70;99.90;;;;;;5049420;28;20195;-53
2022/06/01 05:52:41;;;;;;;4.43;2.73;;;11.70;99.90;;;;;;5048845;28;20183;-47
2022/06/01 05:55:12;;;;;;;2.87;2.43;;;11.60;99.90;;;;;;5042049;28;20686;-48
2022/06/01 05:57:38;;;;;;;5.40;3.10;;;11.60;99.90;;;;;;5065847;28;20225;-51
2022/06/01 06:00:10;;;;;;;3.83;3.30;;;11.60;99.90;;;;;;5056354;28;20214;-52
2022/06/01 06:02:42;;;;;;;3.07;2.60;;;11.60;99.90;;;;;;5052759;28;20248;-52
2022/06/01 06:06:12;;;;;;;3.40;3.10;;;11.60;99.90;;;;;;5058063;28;20195;-49
2022/06/01 06:08:09;;;;;;;3.97;3.33;;;11.60;99.90;;;;;;5041968;28;20318;-52
2022/06/01 06:10:37;;;;;;;6.73;4.87;;;11.60;99.90;;;;;;5050878;28;20195;-49
2022/06/01 06:13:04;;;;;;;3.30;3.00;;;11.60;99.90;;;;;;5046323;28;20229;-52
2022/06/01 06:15:30;;;;;;;3.43;3.10;;;11.60;99.90;;;;;;5045260;28;20218;-49
2022/06/01 06:17:57;;;;;;;3.17;2.97;;;11.60;99.90;;;;;;5044587;28;20219;-49
2022/06/01 06:20:23;;;;;;;3.40;3.10;;;11.60;99.90;;;;;;5049879;28;20197;-50
2022/06/01 06:22:50;;;;;;;3.50;3.20;;;11.50;99.90;;;;;;5053467;28;20255;-48
2022/06/01 06:25:18;;;;;;;3.70;3.40;;;11.50;99.90;;;;;;5042238;28;20191;-51
2022/06/01 06:27:45;;;;;;;4.43;3.80;;;11.50;99.90;;;;;;5038717;28;20199;-48
2022/06/01 06:30:15;;;;;;;4.30;3.60;;;11.50;99.90;;;;;;5047993;28;20200;-48
2022/06/01 06:32:42;;;;;;;10.50;5.07;;;11.50;99.90;;;;;;5048180;28;20651;-51
2022/06/01 06:35:09;;;;;;;15.73;9.03;;;11.40;99.90;;;;;;5054074;28;20571;-51
2022/06/01 06:37:36;;;;;;;12.67;6.67;;;11.30;99.90;;;;;;5045971;28;20686;-47
2022/06/01 06:40:03;;;;;;;5.87;5.37;;;11.20;99.90;;;;;;5054621;28;20229;-52
2022/06/01 06:42:31;;;;;;;11.40;7.33;;;11.10;99.90;;;;;;5051163;28;20195;-47
2022/06/01 06:44:58;;;;;;;10.47;7.50;;;11.10;99.90;;;;;;5040434;28;20210;-49
2022/06/01 06:47:25;;;;;;;12.87;7.53;;;11.10;99.90;;;;;;5047014;28;20195;-47
2022/06/01 06:49:52;;;;;;;14.97;7.93;;;11.00;99.90;;;;;;5054095;28;20226;-48
2022/06/01 06:52:18;;;;;;;12.53;8.90;;;11.00;99.90;;;;;;5047858;28;20203;-50
2022/06/01 06:54:45;;;;;;;8.27;7.60;;;11.10;99.90;;;;;;5046408;28;20215;-50
2022/06/01 06:57:12;;;;;;;7.47;6.73;;;11.00;99.90;;;;;;5048273;28;20207;-53
2022/06/01 06:59:40;;;;;;;7.10;6.47;;;11.00;99.90;;;;;;5037283;28;20215;-47
2022/06/01 07:02:06;;;;;;;8.13;7.23;;;11.00;99.90;;;;;;5053358;28;20199;-53
2022/06/01 07:04:35;;;;;;;8.17;7.17;;;11.00;99.90;;;;;;5044965;28;20211;-48
2022/06/01 07:07:02;;;;;;;7.97;7.17;;;11.00;99.90;;;;;;5052103;28;20246;-53
2022/06/01 07:09:29;;;;;;;8.37;7.70;;;10.90;99.90;;;;;;5051525;28;20903;-53
2022/06/01 07:11:56;;;;;;;9.00;8.30;;;11.00;99.90;;;;;;5055482;28;20206;-51
2022/06/01 07:14:23;;;;;;;8.97;8.13;;;10.90;99.90;;;;;;5050803;28;20896;-48
2022/06/01 07:16:51;;;;;;;9.03;8.23;;;11.00;99.90;;;;;;5049192;28;20217;-51
2022/06/01 07:19:19;;;;;;;8.73;7.97;;;11.00;99.90;;;;;;5044631;28;20299;-51
2022/06/01 07:21:46;;;;;;;9.50;8.53;;;11.00;99.90;;;;;;5048305;28;20305;-49
2022/06/01 07:24:13;;;;;;;7.97;7.37;;;11.10;99.90;;;;;;5043294;28;20846;-51
2022/06/01 07:26:42;;;;;;;8.80;8.00;;;11.10;99.90;;;;;;5046430;28;20195;-54
2022/06/01 07:29:09;;;;;;;7.80;7.23;;;11.00;99.90;;;;;;5040965;28;20215;-52
2022/06/01 07:31:35;;;;;;;7.83;7.23;;;11.10;99.90;;;;;;5046179;28;20202;-47
2022/06/01 07:34:04;;;;;;;8.40;7.70;;;11.10;99.90;;;;;;5053156;28;20203;-50
2022/06/01 07:36:32;;;;;;;8.67;7.80;;;11.10;99.90;;;;;;5045093;28;20187;-48
2022/06/01 07:44:37;;;;;;;9.30;7.97;;;11.10;99.90;;;;;;5052852;28;20667;-50
2022/06/01 07:47:04;;;;;;;9.60;8.57;;;11.10;99.90;;;;;;5041860;28;20205;-49
2022/06/01 07:49:32;;;;;;;9.57;8.57;;;11.20;99.90;;;;;;5041918;28;20222;-49
2022/06/01 07:51:59;;;;;;;8.93;8.03;;;11.20;99.90;;;;;;5042928;28;20195;-51
2022/06/01 07:54:26;;;;;;;9.07;8.23;;;11.30;99.90;;;;;;5048054;28;20195;-49
2022/06/01 07:56:52;;;;;;;9.17;8.27;;;11.30;99.90;;;;;;5048311;28;20655;-50
2022/06/01 07:59:19;;;;;;;10.07;9.17;;;11.30;99.90;;;;;;5053141;28;20974;-47
2022/06/01 08:01:46;;;;;;;9.07;8.27;;;11.40;99.90;;;;;;5041011;28;20630;-49
2022/06/01 08:04:14;;;;;;;8.57;7.80;;;11.30;99.90;;;;;;5042210;28;20893;-49
2022/06/01 08:06:42;;;;;;;9.40;8.60;;;11.30;99.90;;;;;;5047716;28;20687;-49
2022/06/01 08:09:09;;;;;;;10.30;9.13;;;11.40;99.90;;;;;;5044927;28;20214;-49
2022/06/01 08:14:20;;;;;;;8.97;8.13;;;11.50;99.90;;;;;;5049337;28;20194;-49
2022/06/01 08:16:47;;;;;;;9.33;8.43;;;11.50;99.90;;;;;;5052541;28;20605;-50
2022/06/01 08:19:16;;;;;;;9.00;8.07;;;11.50;99.90;;;;;;5036858;28;20219;-49
2022/06/01 08:21:44;;;;;;;9.17;8.23;;;11.60;99.90;;;;;;5051123;28;20198;-50
2022/06/01 08:24:13;;;;;;;9.87;8.93;;;11.70;99.90;;;;;;5058177;28;20199;-52
2022/06/01 08:26:39;;;;;;;9.87;9.00;;;11.70;99.90;;;;;;5060493;28;20204;-52
2022/06/01 08:29:06;;;;;;;9.60;8.77;;;11.80;99.90;;;;;;5050964;28;20219;-50
2022/06/01 08:31:34;;;;;;;8.73;8.03;;;11.80;99.90;;;;;;5054801;28;20225;-49
2022/06/01 08:34:02;;;;;;;10.83;9.93;;;11.90;99.90;;;;;;5050359;28;20214;-52
2022/06/01 08:36:28;;;;;;;9.67;8.77;;;12.00;99.90;;;;;;5051872;28;20230;-47
2022/06/01 08:38:57;;;;;;;9.23;8.43;;;12.10;99.90;;;;;;5053329;28;20229;-48
2022/06/01 08:41:28;;;;;;;9.33;8.63;;;12.10;99.90;;;;;;5051338;28;20203;-51
2022/06/01 08:43:58;;;;;;;9.20;8.50;;;12.10;99.90;;;;;;5060032;28;20198;-50
2022/06/01 08:46:26;;;;;;;8.83;8.13;;;12.10;99.90;;;;;;5054043;28;20206;-53
2022/06/01 08:48:57;;;;;;;10.20;9.00;;;12.10;99.90;;;;;;5058206;28;20265;-52
2022/06/01 08:51:26;;;;;;;10.00;9.20;;;12.10;99.90;;;;;;5051191;28;20292;-47
2022/06/01 08:53:53;;;;;;;9.90;9.10;;;12.30;99.90;;;;;;5050930;28;20195;-52
2022/06/01 08:56:28;;;;;;;9.60;8.80;;;12.40;99.90;;;;;;5056293;28;20222;-48
2022/06/01 08:59:02;;;;;;;9.53;8.60;;;12.50;99.90;;;;;;5053715;28;20218;-51
2022/06/01 09:01:37;;;;;;;7.90;7.20;;;12.60;99.90;;;;;;5052922;28;20209;-51
2022/06/01 09:04:11;;;;;;;7.53;6.90;;;12.60;99.90;;;;;;5057291;28;20608;-52
2022/06/01 09:06:43;;;;;;;7.40;6.80;;;12.70;99.90;;;;;;5042291;28;20600;-50
2022/06/01 09:09:18;;;;;;;6.90;6.43;;;12.80;99.90;;;;;;5061294;28;20218;-54
2022/06/01 09:11:47;;;;;;;7.20;6.50;;;12.80;99.90;;;;;;5051000;28;20914;-48
2022/06/01 09:14:21;;;;;;;5.93;5.37;;;12.90;99.90;;;;;;5056101;28;20230;-53
2022/06/01 09:16:51;;;;;;;6.03;5.47;;;12.90;99.90;;;;;;5056076;28;20195;-54
2022/06/01 09:19:23;;;;;;;7.13;6.43;;;12.90;99.90;;;;;;5059192;28;20218;-53
2022/06/01 09:24:40;;;;;;;6.57;5.93;;;13.20;99.90;;;;;;5046312;28;20265;-50
2022/06/01 09:27:11;;;;;;;7.27;6.57;;;13.30;99.90;;;;;;5048139;28;20195;-52
2022/06/01 09:29:46;;;;;;;7.60;6.90;;;13.50;99.90;;;;;;5059360;28;20333;-47
2022/06/01 09:32:30;;;;;;;6.83;6.33;;;13.60;99.90;;;;;;5050750;28;20202;-47
2022/06/01 09:35:01;;;;;;;5.27;4.87;;;13.70;99.90;;;;;;5043387;28;20198;-50
2022/06/01 09:37:31;;;;;;;5.80;5.17;;;13.80;99.90;;;;;;5050932;28;20206;-50
2022/06/01 09:40:01;;;;;;;5.50;5.10;;;13.80;99.90;;;;;;5043066;28;20260;-52
2022/06/01 09:42:34;;;;;;;6.53;5.90;;;14.00;99.90;;;;;;5054077;28;20199;-49
2022/06/01 09:45:04;;;;;;;5.37;4.90;;;14.30;99.90;;;;;;5041850;28;20209;-48
2022/06/01 09:47:37;;;;;;;4.03;3.77;;;14.30;99.90;;;;;;5055787;28;20217;-47
2022/06/01 09:50:09;;;;;;;3.40;3.20;;;14.30;99.90;;;;;;5054668;28;20292;-48
2022/06/01 09:52:41;;;;;;;3.33;3.13;;;14.30;99.90;;;;;;5039001;28;20287;-46
2022/06/01 09:55:13;;;;;;;3.13;2.93;;;14.40;99.90;;;;;;5044355;28;20896;-45
2022/06/01 09:57:41;;;;;;;3.90;3.60;;;14.50;99.90;;;;;;5057896;28;20564;-48
2022/06/01 10:06:30;;;;;;;3.70;3.43;;;14.50;99.90;;;;;;5043275;28;20255;-46
2022/06/01 10:09:01;;;;;;;3.43;3.13;;;14.50;99.90;;;;;;5049136;28;20590;-52
2022/06/01 10:11:32;;;;;;;3.33;3.07;;;14.50;99.90;;;;;;5053908;28;20565;-52
2022/06/01 10:14:12;;;;;;;3.00;2.73;;;14.50;99.90;;;;;;5043087;28;20203;-51
2022/06/01 10:16:49;;;;;;;4.00;3.70;;;14.50;99.90;;;;;;5058623;28;20198;-51
2022/06/01 10:19:24;;;;;;;4.40;4.00;;;14.50;99.90;;;;;;5047851;28;20229;-46
2022/06/01 10:21:56;;;;;;;3.50;3.20;;;14.60;99.90;;;;;;5046153;28;20199;-51
2022/06/01 10:24:28;;;;;;;4.03;3.73;;;14.70;99.90;;;;;;5042910;28;20210;-50
2022/06/01 10:26:59;;;;;;;8.20;6.30;;;14.80;99.90;;;;;;5046001;28;20742;-51
2022/06/01 10:29:30;;;;;;;3.80;3.43;;;14.90;99.90;;;;;;5053454;28;20757;-49
2022/06/01 10:32:04;;;;;;;3.00;2.80;;;15.00;99.90;;;;;;5050760;28;20192;-51
2022/06/01 10:34:36;;;;;;;2.83;2.63;;;14.90;99.90;;;;;;5052973;28;20569;-46
2022/06/01 10:37:12;;;;;;;4.43;4.03;;;15.00;99.90;;;;;;5047715;28;20285;-49
2022/06/01 10:39:44;;;;;;;2.93;2.53;;;15.00;99.90;;;;;;5040192;28;20222;-46
2022/06/01 10:42:17;;;;;;;4.17;2.80;;;15.10;99.90;;;;;;5047737;28;20249;-51
2022/06/01 10:44:52;;;;;;;3.97;2.93;;;15.10;99.90;;;;;;5053106;28;20190;-51
2022/06/01 10:47:30;;;;;;;4.60;4.30;;;15.00;99.90;;;;;;5048857;28;20938;-47
2022/06/01 10:50:02;;;;;;;4.20;3.90;;;15.00;99.90;;;;;;5044810;28;20219;-52
2022/06/01 10:52:34;;;;;;;3.50;3.30;;;15.00;99.90;;;;;;5043746;28;20594;-53
2022/06/01 10:55:12;;;;;;;3.40;3.10;;;15.10;99.90;;;;;;5043731;28;20205;-47
2022/06/01 10:57:42;;;;;;;5.27;4.00;;;15.20;99.90;;;;;;5043593;28;20226;-46
2022/06/01 11:00:15;;;;;;;3.80;3.50;;;15.40;99.90;;;;;;5050265;28;20215;-48
2022/06/01 11:03:15;;;;;;;3.33;3.13;;;15.50;99.90;;;;;;5044970;28;20191;-46
2022/06/01 11:05:51;;;;;;;4.50;3.50;;;15.60;99.90;;;;;;5038029;28;20285;-46
2022/06/01 11:08:38;;;;;;;2.80;2.60;;;15.80;99.90;;;;;;5054590;28;20226;-51
2022/06/01 11:11:12;;;;;;;3.67;3.37;;;15.90;99.90;;;;;;5043363;28;20209;-49
2022/06/01 11:13:59;;;;;;;3.43;3.13;;;16.00;99.90;;;;;;5048788;28;20901;-48
2022/06/01 11:16:39;;;;;;;3.60;3.33;;;15.80;99.90;;;;;;5055027;28;20210;-51
2022/06/01 11:19:20;;;;;;;3.80;3.47;;;15.80;99.90;;;;;;5050979;28;20222;-47
2022/06/01 11:21:55;;;;;;;4.67;4.23;;;15.80;99.90;;;;;;5042254;28;20262;-50
2022/06/01 11:24:51;;;;;;;3.63;3.33;;;16.00;99.90;;;;;;5047562;28;20202;-49
2022/06/01 11:27:31;;;;;;;3.77;3.47;;;16.20;99.90;;;;;;5044244;28;20289;-49
2022/06/01 11:30:06;;;;;;;4.43;3.03;;;16.30;99.90;;;;;;5050542;28;20679;-47
2022/06/01 11:32:44;;;;;;;3.60;3.30;;;16.30;99.90;;;;;;5045692;28;20539;-46
2022/06/01 11:35:19;;;;;;;3.80;3.47;;;16.10;99.90;;;;;;5046802;28;20321;-48
2022/06/01 11:37:52;;;;;;;3.10;2.80;;;16.20;99.90;;;;;;5054766;28;20252;-46
2022/06/01 11:40:29;;;;;;;3.73;3.37;;;16.30;99.90;;;;;;5047398;28;20222;-49
2022/06/01 11:43:01;;;;;;;3.70;3.33;;;16.20;99.90;;;;;;5041879;28;20210;-45
2022/06/01 11:45:33;;;;;;;4.07;3.47;;;16.20;99.90;;;;;;5046494;28;20202;-52
2022/06/01 11:48:06;;;;;;;3.57;3.27;;;16.20;99.90;;;;;;5045221;28;20195;-46
2022/06/01 11:50:54;;;;;;;3.33;3.03;;;16.30;99.90;;;;;;5041917;28;20195;-51
2022/06/01 11:53:23;;;;;;;4.30;3.90;;;16.30;99.90;;;;;;5049827;28;20664;-51
2022/06/01 11:55:50;;;;;;;3.90;3.67;;;16.50;99.90;;;;;;5048010;28;20253;-48
2022/06/01 11:58:41;;;;;;;3.80;3.37;;;16.60;99.90;;;;;;5042678;28;20229;-50
2022/06/01 12:01:13;;;;;;;3.33;3.00;;;16.70;99.90;;;;;;5053651;28;20206;-46
2022/06/01 12:03:57;;;;;;;3.10;2.90;;;16.70;99.90;;;;;;5043626;28;20199;-47
2022/06/01 12:06:43;;;;;;;3.60;3.10;;;16.90;99.90;;;;;;5048751;28;20222;-48
2022/06/01 12:09:19;;;;;;;3.37;3.07;;;17.00;99.90;;;;;;5045639;28;20221;-48
2022/06/01 12:11:47;;;;;;;3.10;2.90;;;17.10;99.90;;;;;;5043415;28;20277;-48
2022/06/01 12:14:33;;;;;;;3.27;3.07;;;17.50;99.90;;;;;;5049462;28;20260;-49
2022/06/01 12:17:27;;;;;;;3.90;3.50;;;17.70;99.90;;;;;;5044888;28;20214;-51
2022/06/01 12:20:42;;;;;;;3.70;3.40;;;17.70;99.90;;;;;;5050435;28;20699;-46
2022/06/01 12:29:52;;;;;;;3.23;3.03;;;17.70;99.90;;;;;;5055618;28;20207;-50
2022/06/01 12:32:19;;;;;;;3.87;3.47;;;17.60;99.90;;;;;;5044231;28;20224;-48
2022/06/01 12:34:58;;;;;;;4.27;3.97;;;17.50;99.90;;;;;;5053700;28;20582;-51
2022/06/01 12:37:31;;;;;;;4.77;4.33;;;17.40;99.90;;;;;;5050044;28;20585;-48
2022/06/01 12:40:01;;;;;;;5.83;4.57;;;17.30;99.90;;;;;;5051034;28;20233;-50
2022/06/01 12:42:33;;;;;;;6.37;5.87;;;17.30;99.90;;;;;;5056514;28;20198;-46
2022/06/01 12:45:03;;;;;;;5.53;5.13;;;17.30;99.90;;;;;;5040541;28;20199;-48
2022/06/01 12:47:32;;;;;;;5.63;5.07;;;17.30;99.90;;;;;;5049391;28;20205;-50
2022/06/01 12:50:07;;;;;;;6.73;6.13;;;17.60;99.90;;;;;;5045378;28;20294;-52
2022/06/01 12:52:34;;;;;;;5.93;5.40;;;17.60;99.90;;;;;;5047366;28;20613;-50
2022/06/01 12:55:04;;;;;;;7.43;5.30;;;17.50;99.90;;;;;;5045885;28;20187;-50
2022/06/01 12:57:36;;;;;;;5.70;5.20;;;17.50;99.90;;;;;;5055335;28;20210;-50
2022/06/01 13:00:09;;;;;;;5.27;4.80;;;17.70;99.90;;;;;;5040581;28;20897;-50
2022/06/01 13:02:37;;;;;;;4.23;3.63;;;17.70;99.90;;;;;;5050990;28;20203;-50
2022/06/01 13:05:07;;;;;;;3.77;2.90;;;17.30;99.90;;;;;;5040509;28;20329;-52
2022/06/01 13:07:38;;;;;;;2.77;2.60;;;16.60;99.90;;;;;;5047547;28;20232;-46
2022/06/01 13:10:08;;;;;;;3.70;3.00;;;15.90;99.90;;;;;;5050753;28;20308;-53
2022/06/01 13:12:37;;;;;;;3.10;2.80;;;15.40;99.90;;;;;;5053467;28;20206;-49
2022/06/01 13:15:15;;;;;;;3.30;3.00;;;15.00;99.90;;;;;;5039832;28;20206;-47
2022/06/01 13:17:48;;;;;;;3.60;3.27;;;14.60;99.90;;;;;;5046167;28;20201;-49
2022/06/01 13:20:15;;;;;;;2.50;2.30;;;14.50;99.90;;;;;;5053074;28;20234;-52
2022/06/01 13:22:47;;;;;;;2.73;2.23;;;14.20;99.90;;;;;;5054999;28;20217;-49
2022/06/01 13:25:18;;;;;;;3.07;2.87;;;14.00;99.90;;;;;;5046217;28;20198;-46
2022/06/01 13:27:47;;;;;;;5.40;3.00;;;13.90;99.90;;;;;;5054151;28;20229;-50
2022/06/01 13:30:15;;;;;;;6.83;3.53;;;13.90;99.90;;;;;;5041070;28;20202;-48
2022/06/01 13:32:46;;;;;;;3.83;3.53;;;13.60;99.90;;;;;;5052048;28;20875;-49
2022/06/01 13:35:31;;;;;;;4.00;3.70;;;13.20;99.90;;;;;;5054256;28;20183;-47
2022/06/01 13:38:00;;;;;;;5.13;4.43;;;13.10;99.90;;;;;;5048086;28;20202;-45